Time;durP1;ratioP1;P1;durP2;ratioP2;P2;SDS_P1;SDS_P2;PMS_P1;PMS_P2;Temp;Humidity;BMP_temperature;BMP_pressure;BME280_temperature;BME280_humidity;BME280_pressure;Samples;Min_cycle;Max_cycle;Signal;HPM_P1;HPM_P2
2021/06/06 00:01:40;;;;;;;62.35;35.33;;;16.60;90.80;;;;;;5018850;28;20090;-78
2021/06/06 00:04:06;;;;;;;55.22;33.25;;;16.60;90.80;;;;;;5032568;28;20033;-78
2021/06/06 00:06:34;;;;;;;50.45;30.55;;;16.50;91.20;;;;;;5004651;28;20125;-78
2021/06/06 00:09:00;;;;;;;60.15;36.10;;;16.50;91.60;;;;;;5019041;28;20401;-77
2021/06/06 00:11:30;;;;;;;56.72;31.08;;;16.60;90.70;;;;;;5035397;28;20128;-77
2021/06/06 00:13:57;;;;;;;39.42;23.25;;;16.40;90.80;;;;;;5009478;28;20124;-77
2021/06/06 00:16:43;;;;;;;56.35;33.42;;;16.40;91.40;;;;;;5006249;28;20064;-78
2021/06/06 00:19:09;;;;;;;;;;;16.50;90.80;;;;;;5021802;28;20037;-78
2021/06/06 00:21:35;;;;;;;67.00;38.10;;;16.50;91.00;;;;;;5031654;28;19908;-79
2021/06/06 00:24:00;;;;;;;54.28;32.25;;;16.40;90.80;;;;;;5017836;28;20021;-78
2021/06/06 00:26:26;;;;;;;61.35;37.22;;;16.30;90.60;;;;;;5030938;28;20714;-78
2021/06/06 00:28:51;;;;;;;59.10;36.60;;;16.30;91.00;;;;;;5016729;28;20036;-78
2021/06/06 00:31:17;;;;;;;55.40;32.50;;;16.30;91.00;;;;;;5019464;28;20049;-78
2021/06/06 00:33:43;;;;;;;57.70;34.95;;;16.30;90.80;;;;;;5034160;28;20049;-78
2021/06/06 00:36:08;;;;;;;47.60;28.50;;;16.30;91.00;;;;;;5019933;28;20022;-79
2021/06/06 00:38:34;;;;;;;48.95;31.10;;;16.30;91.10;;;;;;5031812;28;20033;-78
2021/06/06 00:41:00;;;;;;;54.80;34.05;;;16.20;90.80;;;;;;5019398;28;20029;-78
2021/06/06 00:43:26;;;;;;;59.28;35.50;;;16.40;90.30;;;;;;5034949;28;20484;-78
2021/06/06 00:45:52;;;;;;;57.67;35.88;;;16.40;90.30;;;;;;5033399;28;20048;-78
2021/06/06 00:48:17;;;;;;;54.88;34.58;;;16.30;90.70;;;;;;5036700;28;20034;-78
2021/06/06 00:50:46;;;;;;;59.25;35.95;;;16.30;90.70;;;;;;5015162;28;20063;-78
2021/06/06 00:53:23;;;;;;;62.00;36.75;;;16.20;91.10;;;;;;5029308;28;20025;-78
2021/06/06 00:55:49;;;;;;;63.30;37.85;;;16.20;91.10;;;;;;5035399;28;20069;-78
2021/06/06 00:58:14;;;;;;;45.13;27.45;;;16.20;90.80;;;;;;5033406;28;20429;-78
2021/06/06 01:00:48;;;;;;;58.58;32.13;;;16.10;90.70;;;;;;5023186;28;20495;-78
2021/06/06 01:03:13;;;;;;;60.55;38.08;;;16.10;90.50;;;;;;5015344;28;20029;-78
2021/06/06 01:05:45;;;;;;;61.33;36.88;;;16.10;91.00;;;;;;5025330;28;20547;-78
2021/06/06 01:08:13;;;;;;;68.47;40.78;;;16.10;91.00;;;;;;5018340;28;20044;-79
2021/06/06 01:10:38;;;;;;;80.25;45.47;;;16.00;90.80;;;;;;5033150;28;20575;-79
2021/06/06 01:13:19;;;;;;;67.30;40.45;;;15.90;91.00;;;;;;5021544;28;20108;-78
2021/06/06 01:15:47;;;;;;;77.07;41.95;;;16.00;91.00;;;;;;5017767;28;20033;-78
2021/06/06 01:18:22;;;;;;;75.47;42.45;;;16.00;91.00;;;;;;5025314;28;20037;-79
2021/06/06 01:20:53;;;;;;;65.70;39.88;;;15.90;90.80;;;;;;5034391;28;20478;-78
2021/06/06 01:23:30;;;;;;;62.67;36.65;;;15.90;90.70;;;;;;5034626;28;20114;-78
2021/06/06 01:25:59;;;;;;;71.90;39.33;;;16.00;90.80;;;;;;5034497;28;20488;-79
2021/06/06 01:28:47;;;;;;;89.80;50.13;;;16.00;91.20;;;;;;5027243;28;20397;-78
2021/06/06 01:31:13;;;;;;;64.78;36.38;;;15.80;90.80;;;;;;5024871;28;20029;-78
2021/06/06 01:33:48;;;;;;;76.13;45.80;;;15.80;90.70;;;;;;4989254;28;20036;-78
2021/06/06 01:36:16;;;;;;;63.80;38.05;;;15.70;91.20;;;;;;5023116;28;20538;-78
2021/06/06 01:38:56;;;;;;;70.28;42.40;;;15.90;91.10;;;;;;5012862;28;20037;-79
2021/06/06 01:41:23;;;;;;;86.80;43.72;;;15.80;91.10;;;;;;5024231;28;20559;-79
2021/06/06 01:43:54;;;;;;;67.53;39.13;;;15.70;90.90;;;;;;5022066;28;20030;-78
2021/06/06 01:46:25;;;;;;;55.97;31.08;;;15.70;91.20;;;;;;5004382;28;20045;-78
2021/06/06 01:48:51;;;;;;;70.50;41.55;;;15.70;91.50;;;;;;5027688;28;20057;-79
2021/06/06 01:51:29;;;;;;;67.10;39.33;;;15.70;91.40;;;;;;5022796;28;20531;-78
2021/06/06 01:53:55;;;;;;;72.72;42.17;;;15.70;91.80;;;;;;5034625;28;20055;-79
2021/06/06 01:56:26;;;;;;;80.53;46.03;;;15.60;91.80;;;;;;5019048;28;20037;-79
2021/06/06 01:58:54;;;;;;;73.90;42.53;;;15.50;91.70;;;;;;5005516;28;20163;-79
2021/06/06 02:01:21;;;;;;;65.10;37.65;;;15.50;91.80;;;;;;5035532;28;20500;-79
2021/06/06 02:03:49;;;;;;;72.55;42.40;;;15.60;91.90;;;;;;5018440;28;20025;-79
2021/06/06 02:06:14;;;;;;;53.30;30.90;;;15.60;91.80;;;;;;5015403;28;20873;-79
2021/06/06 02:08:40;;;;;;;56.95;33.47;;;15.50;91.80;;;;;;5008975;28;20054;-79
2021/06/06 02:11:13;;;;;;;49.90;31.73;;;15.60;91.40;;;;;;4998600;28;20636;-79
2021/06/06 02:13:44;;;;;;;50.70;34.10;;;15.70;91.30;;;;;;5032660;28;20040;-79
2021/06/06 02:16:11;;;;;;;55.40;37.88;;;15.70;91.50;;;;;;5022617;28;20033;-79
2021/06/06 02:18:37;;;;;;;62.55;38.03;;;15.70;91.20;;;;;;5023892;28;20057;-79
2021/06/06 02:21:03;;;;;;;60.85;37.17;;;15.50;91.50;;;;;;5033319;28;20155;-79
2021/06/06 02:23:29;;;;;;;53.08;34.45;;;15.60;91.40;;;;;;5034000;28;20116;-79
2021/06/06 02:26:08;;;;;;;51.47;33.72;;;15.50;91.20;;;;;;5036013;28;20037;-81
2021/06/06 02:28:41;;;;;;;46.85;30.52;;;15.50;91.60;;;;;;5021229;28;20029;-81
2021/06/06 02:31:31;;;;;;;51.40;30.80;;;15.50;91.70;;;;;;5006301;28;20029;-80
2021/06/06 02:34:05;;;;;;;52.10;34.78;;;15.40;91.50;;;;;;5004925;28;20068;-81
2021/06/06 02:36:31;;;;;;;56.65;36.70;;;15.40;91.60;;;;;;5028811;28;20064;-81
2021/06/06 02:39:24;;;;;;;51.63;35.05;;;15.40;91.10;;;;;;5018079;28;20057;-81
2021/06/06 02:42:04;;;;;;;56.88;32.72;;;15.40;91.60;;;;;;5020329;28;20033;-81
2021/06/06 02:44:42;;;;;;;54.72;34.60;;;15.40;91.50;;;;;;5025872;28;20384;-80
2021/06/06 02:47:08;;;;;;;55.10;35.00;;;15.40;91.40;;;;;;5042811;28;20615;-81
2021/06/06 02:49:35;;;;;;;55.75;35.42;;;15.30;91.40;;;;;;5025322;28;20068;-81
2021/06/06 02:52:12;;;;;;;47.40;30.83;;;15.30;91.80;;;;;;5012486;28;20474;-81
2021/06/06 02:54:46;;;;;;;53.30;35.92;;;15.30;91.70;;;;;;5024966;28;20065;-81
2021/06/06 02:57:13;;;;;;;45.35;30.00;;;15.30;92.10;;;;;;5026129;28;20045;-80
2021/06/06 02:59:46;;;;;;;43.20;28.38;;;15.30;92.00;;;;;;5018375;28;20036;-81
2021/06/06 03:02:14;;;;;;;39.42;24.17;;;15.30;91.60;;;;;;5028702;28;20036;-81
2021/06/06 03:04:46;;;;;;;42.80;28.92;;;15.30;91.90;;;;;;5021506;28;20040;-81
2021/06/06 03:07:34;;;;;;;39.90;27.25;;;15.30;92.20;;;;;;5010112;28;20038;-81
2021/06/06 03:09:59;;;;;;;34.55;23.80;;;15.40;91.80;;;;;;5006687;28;20033;-81
2021/06/06 03:12:25;;;;;;;37.20;25.65;;;15.20;92.50;;;;;;5039197;28;20065;-81
2021/06/06 03:14:51;;;;;;;37.92;25.33;;;15.30;91.90;;;;;;5045210;28;20396;-81
2021/06/06 03:17:25;;;;;;;42.90;27.83;;;15.30;92.00;;;;;;5023183;28;20033;-81
2021/06/06 03:19:52;;;;;;;42.08;25.23;;;15.20;92.20;;;;;;5037668;28;20493;-80
2021/06/06 03:22:29;;;;;;;42.25;28.25;;;15.20;92.00;;;;;;5021314;28;20029;-81
2021/06/06 03:24:57;;;;;;;39.65;26.60;;;15.20;92.10;;;;;;5008938;28;20489;-80
2021/06/06 03:27:24;;;;;;;42.85;27.90;;;15.10;92.30;;;;;;5022720;28;20033;-81
2021/06/06 03:30:03;;;;;;;41.50;26.70;;;15.00;92.70;;;;;;5000117;28;20030;-80
2021/06/06 03:32:32;;;;;;;37.70;27.23;;;15.00;92.70;;;;;;5007315;28;20048;-80
2021/06/06 03:34:58;;;;;;;34.60;22.63;;;15.00;92.70;;;;;;5022003;28;20032;-80
2021/06/06 03:37:24;;;;;;;40.28;26.85;;;15.00;93.10;;;;;;5029018;28;20029;-80
2021/06/06 03:39:49;;;;;;;36.05;24.80;;;14.90;93.40;;;;;;5013495;28;20044;-80
2021/06/06 03:42:15;;;;;;;35.50;23.48;;;14.90;93.40;;;;;;5022664;28;20032;-80
2021/06/06 03:44:40;;;;;;;32.20;22.58;;;14.90;93.60;;;;;;5022855;28;20112;-80
2021/06/06 03:47:06;;;;;;;29.52;19.98;;;15.00;93.30;;;;;;5024257;28;20470;-80
2021/06/06 03:49:31;;;;;;;42.00;28.95;;;15.10;93.20;;;;;;5017665;28;20033;-80
2021/06/06 03:51:57;;;;;;;43.88;30.20;;;15.20;92.90;;;;;;5019116;28;20033;-80
2021/06/06 03:54:23;;;;;;;40.65;27.48;;;15.10;92.80;;;;;;5023709;28;20440;-80
2021/06/06 03:56:49;;;;;;;41.47;29.55;;;15.00;92.60;;;;;;5016248;28;20397;-80
2021/06/06 03:59:15;;;;;;;46.97;29.02;;;15.10;93.00;;;;;;5022793;28;20049;-80
2021/06/06 04:01:41;;;;;;;40.05;28.60;;;15.10;92.80;;;;;;5039465;28;20033;-80
2021/06/06 04:04:06;;;;;;;45.40;28.55;;;15.10;92.70;;;;;;5008830;28;20449;-80
2021/06/06 04:06:32;;;;;;;32.42;23.30;;;15.10;93.20;;;;;;5018614;28;20041;-80
2021/06/06 04:08:57;;;;;;;39.60;26.10;;;15.10;92.80;;;;;;5019458;28;20284;-80
2021/06/06 04:11:23;;;;;;;42.97;27.00;;;15.10;92.70;;;;;;5036718;28;20051;-80
2021/06/06 04:13:50;;;;;;;38.25;26.67;;;15.10;92.90;;;;;;5036676;28;20456;-80
2021/06/06 04:16:16;;;;;;;41.67;29.17;;;15.10;92.80;;;;;;5035291;28;20090;-80
2021/06/06 04:18:42;;;;;;;40.10;25.00;;;15.10;92.60;;;;;;5038061;28;20037;-80
2021/06/06 04:21:10;;;;;;;40.45;25.50;;;15.10;92.90;;;;;;5029289;28;20037;-80
2021/06/06 04:23:36;;;;;;;33.65;24.48;;;15.00;93.30;;;;;;5021791;28;20452;-80
2021/06/06 04:26:01;;;;;;;35.58;24.13;;;15.10;93.40;;;;;;5035000;28;20038;-80
2021/06/06 04:28:27;;;;;;;44.22;23.15;;;15.00;94.10;;;;;;5024180;28;20098;-80
2021/06/06 04:30:53;;;;;;;28.73;20.75;;;15.10;93.40;;;;;;5035892;28;20091;-80
2021/06/06 04:33:19;;;;;;;33.40;21.02;;;15.00;93.70;;;;;;5036859;28;20049;-80
2021/06/06 04:35:45;;;;;;;37.78;25.25;;;15.10;93.20;;;;;;5019729;28;20080;-80
2021/06/06 04:38:13;;;;;;;37.00;26.70;;;15.10;93.90;;;;;;5017459;28;20485;-80
2021/06/06 04:40:39;;;;;;;34.00;23.33;;;15.00;94.30;;;;;;5036838;28;20327;-80
2021/06/06 04:43:05;;;;;;;36.72;23.88;;;15.10;93.70;;;;;;5025607;28;20030;-80
2021/06/06 04:45:31;;;;;;;38.33;24.92;;;15.20;93.10;;;;;;5034895;28;20045;-80
2021/06/06 04:48:27;;;;;;;35.13;25.73;;;15.10;93.20;;;;;;5036784;28;20033;-80
2021/06/06 04:50:53;;;;;;;31.90;23.90;;;15.10;93.00;;;;;;5032574;28;20038;-80
2021/06/06 04:53:18;;;;;;;35.92;24.73;;;15.10;93.10;;;;;;5024516;28;20636;-80
2021/06/06 04:55:44;;;;;;;37.97;24.48;;;15.10;93.80;;;;;;5021197;28;20054;-80
2021/06/06 04:58:14;;;;;;;34.70;24.20;;;15.20;93.90;;;;;;5020690;28;20083;-80
2021/06/06 05:00:42;;;;;;;36.88;27.17;;;15.10;93.70;;;;;;5028777;28;20099;-80
2021/06/06 05:03:08;;;;;;;47.85;26.10;;;15.20;93.60;;;;;;5037231;28;20444;-79
2021/06/06 05:05:34;;;;;;;36.00;25.20;;;15.20;93.90;;;;;;5019980;28;20033;-80
2021/06/06 05:08:00;;;;;;;31.85;20.88;;;15.30;93.20;;;;;;5021030;28;20124;-79
2021/06/06 05:10:27;;;;;;;32.60;22.08;;;15.30;93.30;;;;;;5035545;28;20029;-80
2021/06/06 05:12:52;;;;;;;39.95;27.30;;;15.30;93.80;;;;;;5023312;28;20477;-79
2021/06/06 05:15:19;;;;;;;39.65;27.08;;;15.30;93.50;;;;;;5033706;28;20036;-80
2021/06/06 05:17:44;;;;;;;40.75;28.42;;;15.30;93.50;;;;;;5035587;28;20033;-79
2021/06/06 05:20:15;;;;;;;36.28;24.48;;;15.40;93.30;;;;;;5019755;28;20032;-80
2021/06/06 05:22:41;;;;;;;30.02;21.63;;;15.40;93.30;;;;;;5036471;28;20079;-80
2021/06/06 05:25:07;;;;;;;36.88;26.17;;;15.40;93.10;;;;;;5033527;28;20029;-79
2021/06/06 05:27:32;;;;;;;31.23;22.83;;;15.40;93.20;;;;;;5035505;28;20044;-80
2021/06/06 05:29:58;;;;;;;31.60;21.83;;;15.40;93.20;;;;;;5022538;28;20057;-80
2021/06/06 05:32:23;;;;;;;40.53;25.50;;;15.50;93.20;;;;;;5022495;28;20029;-79
2021/06/06 05:34:49;;;;;;;35.70;24.15;;;15.40;93.10;;;;;;5020923;28;20030;-80
2021/06/06 05:37:15;;;;;;;37.28;24.77;;;15.50;92.90;;;;;;5017797;28;20497;-79
2021/06/06 05:39:41;;;;;;;38.72;26.10;;;15.50;92.50;;;;;;5032642;28;20036;-79
2021/06/06 05:42:07;;;;;;;31.25;22.58;;;15.60;92.90;;;;;;5039101;28;20084;-79
2021/06/06 05:44:33;;;;;;;35.38;25.35;;;15.60;92.70;;;;;;5009604;28;20036;-80
2021/06/06 05:46:58;;;;;;;24.52;17.95;;;15.60;92.70;;;;;;5017254;28;20037;-79
2021/06/06 05:49:24;;;;;;;30.98;23.00;;;15.70;92.40;;;;;;5032647;28;20071;-80
2021/06/06 05:51:49;;;;;;;32.65;21.65;;;15.70;92.90;;;;;;5031601;28;20134;-80
2021/06/06 05:54:15;;;;;;;30.42;21.80;;;15.70;92.60;;;;;;5034715;28;20144;-80
2021/06/06 05:56:42;;;;;;;31.92;22.33;;;15.80;92.60;;;;;;5035604;28;20511;-79
2021/06/06 05:59:08;;;;;;;34.75;23.55;;;15.90;92.80;;;;;;5034292;28;20030;-79
2021/06/06 06:01:33;;;;;;;36.13;24.70;;;16.00;93.00;;;;;;5036487;28;20036;-79
2021/06/06 06:03:59;;;;;;;29.45;21.40;;;16.00;92.90;;;;;;5020693;28;20025;-79
2021/06/06 06:06:24;;;;;;;32.88;21.35;;;16.10;92.60;;;;;;5017707;28;20037;-79
2021/06/06 06:08:50;;;;;;;35.53;22.95;;;16.10;93.00;;;;;;5021972;28;20029;-80
2021/06/06 06:11:17;;;;;;;35.10;23.20;;;16.20;92.90;;;;;;5034311;28;20083;-78
2021/06/06 06:13:43;;;;;;;33.92;24.38;;;16.30;92.70;;;;;;5038896;28;20061;-78
2021/06/06 06:16:10;;;;;;;42.65;25.58;;;16.30;92.90;;;;;;5030584;28;20560;-79
2021/06/06 06:18:35;;;;;;;33.47;21.83;;;16.30;93.50;;;;;;5005745;28;20500;-79
2021/06/06 06:21:01;;;;;;;39.97;23.92;;;16.40;93.00;;;;;;5040600;28;20033;-78
2021/06/06 06:23:27;;;;;;;30.65;19.38;;;16.50;93.40;;;;;;5039681;28;20044;-78
2021/06/06 06:25:58;;;;;;;36.95;22.67;;;16.50;93.00;;;;;;5023006;28;20069;-78
2021/06/06 06:28:24;;;;;;;33.33;22.70;;;16.60;93.00;;;;;;5030701;28;20041;-80
2021/06/06 06:30:50;;;;;;;36.53;23.90;;;16.70;92.80;;;;;;5033274;28;20852;-80
2021/06/06 06:33:15;;;;;;;26.60;18.58;;;16.70;93.10;;;;;;5038594;28;20128;-81
2021/06/06 06:35:41;;;;;;;30.98;23.42;;;16.80;92.20;;;;;;5023368;28;20116;-81
2021/06/06 06:38:07;;;;;;;33.33;22.50;;;16.90;92.70;;;;;;5026136;28;20116;-80
2021/06/06 06:40:32;;;;;;;37.63;25.63;;;16.90;92.90;;;;;;5022947;28;20064;-80
2021/06/06 06:42:58;;;;;;;30.70;19.33;;;16.90;92.70;;;;;;5024248;28;20025;-80
2021/06/06 06:45:27;;;;;;;35.88;26.98;;;17.00;92.40;;;;;;5003226;28;20041;-80
2021/06/06 06:48:00;;;;;;;41.78;27.02;;;17.00;93.00;;;;;;5011799;28;20064;-80
2021/06/06 06:50:26;;;;;;;37.83;23.77;;;17.00;92.70;;;;;;5038510;28;20473;-81
2021/06/06 06:52:52;;;;;;;41.47;26.77;;;17.00;91.80;;;;;;5017577;28;20029;-80
2021/06/06 06:55:18;;;;;;;41.30;26.83;;;17.10;93.40;;;;;;5008212;28;20033;-81
2021/06/06 06:57:43;;;;;;;34.97;23.42;;;17.10;93.00;;;;;;5004507;28;20120;-80
2021/06/06 07:00:12;;;;;;;38.33;26.42;;;17.20;92.70;;;;;;5011305;28;20124;-80
2021/06/06 07:02:38;;;;;;;48.08;31.13;;;17.20;92.60;;;;;;5029687;28;20489;-80
2021/06/06 07:05:05;;;;;;;29.40;19.75;;;17.30;93.70;;;;;;5038058;28;20069;-80
2021/06/06 07:07:30;;;;;;;46.92;31.98;;;17.30;92.60;;;;;;5021464;28;20429;-80
2021/06/06 07:09:56;;;;;;;51.13;32.40;;;17.30;93.30;;;;;;5021380;28;20029;-81
2021/06/06 07:12:21;;;;;;;45.33;29.65;;;17.30;93.30;;;;;;5026558;28;20031;-81
2021/06/06 07:14:47;;;;;;;40.78;26.73;;;17.40;93.40;;;;;;5005388;28;20079;-81
2021/06/06 07:17:12;;;;;;;33.13;22.80;;;17.40;93.20;;;;;;5036735;28;20132;-81
2021/06/06 07:19:38;;;;;;;42.92;29.23;;;17.40;92.30;;;;;;5018456;28;20515;-80
2021/06/06 07:22:04;;;;;;;46.75;31.05;;;17.50;93.00;;;;;;5019031;28;20033;-80
2021/06/06 07:24:29;;;;;;;42.10;29.13;;;17.50;93.70;;;;;;5034937;28;20033;-80
2021/06/06 07:26:55;;;;;;;44.80;29.88;;;17.60;93.30;;;;;;5003918;28;20045;-80
2021/06/06 07:29:23;;;;;;;43.95;30.50;;;17.60;93.30;;;;;;5024369;28;20454;-80
2021/06/06 07:31:53;;;;;;;44.97;27.40;;;17.70;93.90;;;;;;5023974;28;20481;-80
2021/06/06 07:34:19;;;;;;;39.03;26.92;;;17.70;93.40;;;;;;5010136;28;20049;-80
2021/06/06 07:36:44;;;;;;;41.90;24.42;;;17.70;93.80;;;;;;5036277;28;20029;-80
2021/06/06 07:39:10;;;;;;;33.17;23.40;;;17.70;94.00;;;;;;5018902;28;20071;-80
2021/06/06 07:41:36;;;;;;;31.60;22.38;;;17.70;93.50;;;;;;5027468;28;20171;-81
2021/06/06 07:44:02;;;;;;;25.98;20.05;;;17.80;93.80;;;;;;5039123;28;20078;-80
2021/06/06 07:46:28;;;;;;;26.08;20.70;;;17.80;93.80;;;;;;5040511;28;20078;-80
2021/06/06 07:48:54;;;;;;;27.17;20.67;;;17.90;93.90;;;;;;5020194;28;20036;-80
2021/06/06 07:51:22;;;;;;;27.63;20.83;;;17.90;93.70;;;;;;5025463;28;20492;-80
2021/06/06 07:53:48;;;;;;;28.90;22.20;;;17.90;93.60;;;;;;5009752;28;20481;-80
2021/06/06 07:56:14;;;;;;;28.27;19.77;;;18.00;93.80;;;;;;5011195;28;20312;-80
2021/06/06 07:58:39;;;;;;;35.53;24.15;;;18.00;93.40;;;;;;5017184;28;20054;-80
2021/06/06 08:01:06;;;;;;;34.50;22.42;;;18.00;93.10;;;;;;5043059;28;20461;-80
2021/06/06 08:03:31;;;;;;;41.00;27.63;;;18.00;92.80;;;;;;5005266;28;20025;-80
2021/06/06 08:05:58;;;;;;;39.83;27.23;;;18.00;92.90;;;;;;5002240;28;20033;-79
2021/06/06 08:08:23;;;;;;;42.13;28.73;;;18.10;92.90;;;;;;5011204;28;20056;-80
2021/06/06 08:10:50;;;;;;;43.38;30.88;;;18.00;92.40;;;;;;5018819;28;20038;-80
2021/06/06 08:13:17;;;;;;;38.30;26.23;;;18.20;92.70;;;;;;5039272;28;20508;-80
2021/06/06 08:15:42;;;;;;;40.70;27.70;;;18.20;92.60;;;;;;5028427;28;20110;-81
2021/06/06 08:18:09;;;;;;;43.83;28.88;;;18.40;93.20;;;;;;5037084;28;20637;-80
2021/06/06 08:20:50;;;;;;;43.47;28.95;;;18.30;92.50;;;;;;5035904;28;20043;-80
2021/06/06 08:23:16;;;;;;;49.20;31.13;;;18.40;92.70;;;;;;5029087;28;20485;-80
2021/06/06 08:25:41;;;;;;;49.10;30.92;;;18.40;92.70;;;;;;5016312;28;20109;-80
2021/06/06 08:28:07;;;;;;;38.20;26.58;;;18.40;92.80;;;;;;5018965;28;20485;-80
2021/06/06 08:30:37;;;;;;;40.78;27.67;;;18.50;91.80;;;;;;5027937;28;20112;-80
2021/06/06 08:33:03;;;;;;;46.72;28.13;;;18.50;92.70;;;;;;5035796;28;20045;-80
2021/06/06 08:35:28;;;;;;;44.63;30.17;;;18.60;92.60;;;;;;5005445;28;20409;-80
2021/06/06 08:37:54;;;;;;;49.30;30.42;;;18.70;92.80;;;;;;5024318;28;20036;-80
2021/06/06 08:40:45;;;;;;;52.17;34.33;;;18.70;92.60;;;;;;5036969;28;20171;-80
2021/06/06 08:43:10;;;;;;;49.13;32.72;;;18.70;92.90;;;;;;5024371;28;20026;-80
2021/06/06 08:45:46;;;;;;;51.08;32.85;;;18.80;92.80;;;;;;5025914;28;20044;-80
2021/06/06 08:48:11;;;;;;;48.63;32.55;;;18.80;92.60;;;;;;5020584;28;20413;-80
2021/06/06 08:50:41;;;;;;;51.40;30.48;;;18.90;92.60;;;;;;5026533;28;20029;-80
2021/06/06 08:53:28;;;;;;;51.92;32.20;;;19.00;92.20;;;;;;5029668;28;20033;-80
2021/06/06 08:56:09;;;;;;;55.33;32.35;;;19.10;92.60;;;;;;5021428;28;20025;-80
2021/06/06 08:58:36;;;;;;;52.03;32.92;;;19.10;92.40;;;;;;5028659;28;20029;-80
2021/06/06 09:01:15;;;;;;;50.45;31.05;;;19.10;92.50;;;;;;5036704;28;20516;-80
2021/06/06 09:03:41;;;;;;;51.22;32.47;;;19.10;92.20;;;;;;5023401;28;20504;-80
2021/06/06 09:06:09;;;;;;;49.70;32.60;;;19.10;92.30;;;;;;5026907;28;20025;-80
2021/06/06 09:08:35;;;;;;;47.72;27.25;;;19.10;92.00;;;;;;5018928;28;20052;-80
2021/06/06 09:11:04;;;;;;;58.20;34.75;;;19.10;92.20;;;;;;5017729;28;20572;-80
2021/06/06 09:13:31;;;;;;;47.67;29.50;;;19.00;92.30;;;;;;5018925;28;20037;-79
2021/06/06 09:16:11;;;;;;;48.00;31.58;;;19.00;92.00;;;;;;5000939;28;20385;-81
2021/06/06 09:18:36;;;;;;;50.15;30.98;;;19.00;91.90;;;;;;5010053;28;20063;-80
2021/06/06 09:21:19;;;;;;;54.17;33.80;;;19.00;92.00;;;;;;5010652;28;20029;-80
2021/06/06 09:23:45;;;;;;;55.67;32.67;;;19.00;92.00;;;;;;5007424;28;20052;-80
2021/06/06 09:26:23;;;;;;;42.10;27.38;;;19.00;91.90;;;;;;5018015;28;20040;-80
2021/06/06 09:29:06;;;;;;;40.38;25.42;;;19.00;91.50;;;;;;5033600;28;20029;-80
2021/06/06 09:31:31;;;;;;;42.05;26.17;;;19.00;91.80;;;;;;5008363;28;20044;-80
2021/06/06 09:34:00;;;;;;;52.33;30.67;;;19.00;91.00;;;;;;5012612;28;20037;-80
2021/06/06 09:36:29;;;;;;;37.53;25.23;;;19.10;91.80;;;;;;4997219;28;20037;-80
2021/06/06 09:39:01;;;;;;;42.50;27.98;;;19.10;91.70;;;;;;5022352;28;20041;-80
2021/06/06 09:41:29;;;;;;;42.53;28.75;;;19.10;91.70;;;;;;5042170;28;20432;-81
2021/06/06 09:44:13;;;;;;;35.25;24.25;;;19.10;91.70;;;;;;5036782;28;20036;-80
2021/06/06 09:46:41;;;;;;;50.25;31.73;;;19.10;91.70;;;;;;5038811;28;20390;-80
2021/06/06 09:49:13;;;;;;;51.17;31.85;;;19.20;91.80;;;;;;5030715;28;20087;-80
2021/06/06 09:51:39;;;;;;;54.92;36.38;;;19.20;91.60;;;;;;5028901;28;20052;-80
2021/06/06 09:54:15;;;;;;;57.00;37.47;;;19.20;91.70;;;;;;5033315;28;20064;-80
2021/06/06 09:56:41;;;;;;;52.17;36.22;;;19.40;91.80;;;;;;5013965;28;20048;-79
2021/06/06 09:59:26;;;;;;;58.47;37.50;;;19.40;91.80;;;;;;4980421;28;20021;-80
2021/06/06 10:01:59;;;;;;;53.37;35.37;;;19.40;91.30;;;;;;5005590;28;20444;-79
2021/06/06 10:04:35;;;;;;;48.25;33.63;;;19.60;92.00;;;;;;5006774;28;20050;-78
2021/06/06 10:07:27;;;;;;;50.08;31.45;;;19.70;91.80;;;;;;4998846;28;20413;-78
2021/06/06 10:09:53;;;;;;;47.17;31.85;;;19.80;91.80;;;;;;5001632;28;20030;-79
2021/06/06 10:12:27;;;;;;;43.22;28.73;;;19.90;91.80;;;;;;5004891;28;20041;-79
2021/06/06 10:14:57;;;;;;;46.15;28.55;;;20.20;91.60;;;;;;5024828;28;20044;-79
2021/06/06 10:17:45;;;;;;;34.83;23.75;;;20.30;91.70;;;;;;5034884;28;20041;-79
2021/06/06 10:20:24;;;;;;;32.50;21.92;;;20.50;91.50;;;;;;5017873;28;20034;-78
2021/06/06 10:22:54;;;;;;;36.47;24.83;;;20.60;91.10;;;;;;5020221;28;20049;-78
2021/06/06 10:25:26;;;;;;;42.45;28.70;;;20.70;91.40;;;;;;5014475;28;20390;-78
2021/06/06 10:27:57;;;;;;;37.33;26.05;;;20.80;91.20;;;;;;5009943;28;20032;-79
2021/06/06 10:30:36;;;;;;;35.33;23.40;;;20.80;90.80;;;;;;5008918;28;20486;-79
2021/06/06 10:33:14;;;;;;;36.90;26.13;;;20.80;90.80;;;;;;5004681;28;20033;-78
2021/06/06 10:35:39;;;;;;;33.70;26.20;;;20.80;90.60;;;;;;5034054;28;20112;-79
2021/06/06 10:38:05;;;;;;;40.25;27.60;;;20.80;90.70;;;;;;5033113;28;20040;-79
2021/06/06 10:40:58;;;;;;;34.40;25.00;;;20.90;90.70;;;;;;5015647;28;20056;-79
2021/06/06 10:43:59;;;;;;;28.63;22.40;;;20.90;90.40;;;;;;5025044;28;20029;-79
2021/06/06 10:46:42;;;;;;;34.13;26.20;;;20.90;90.50;;;;;;5026453;28;20064;-79
2021/06/06 10:49:32;;;;;;;33.35;22.13;;;21.10;90.60;;;;;;5035778;28;20445;-79
2021/06/06 10:52:00;;;;;;;27.67;20.40;;;21.10;90.30;;;;;;5033738;28;20505;-79
2021/06/06 10:54:45;;;;;;;30.75;21.88;;;21.10;90.00;;;;;;4996886;28;20037;-79
2021/06/06 10:57:24;;;;;;;29.20;20.20;;;21.20;90.20;;;;;;5033918;28;20039;-79
2021/06/06 11:00:18;;;;;;;30.40;21.33;;;21.20;89.30;;;;;;5038399;28;20112;-79
2021/06/06 11:02:49;;;;;;;29.48;21.58;;;21.20;89.90;;;;;;5023285;28;20033;-79
2021/06/06 11:05:48;;;;;;;30.77;21.33;;;21.20;88.50;;;;;;5032727;28;20049;-78
2021/06/06 11:08:20;;;;;;;26.02;19.73;;;21.10;88.90;;;;;;5038757;28;20021;-78
2021/06/06 11:11:24;;;;;;;27.95;18.50;;;21.20;89.20;;;;;;5041881;28;20054;-78
2021/06/06 11:13:54;;;;;;;32.22;22.23;;;21.20;89.20;;;;;;5038036;28;20033;-79
2021/06/06 11:16:21;;;;;;;28.60;20.95;;;21.30;89.10;;;;;;5024539;28;20037;-79
2021/06/06 11:18:50;;;;;;;28.42;22.10;;;21.40;89.30;;;;;;5016956;28;20129;-79
2021/06/06 11:21:15;;;;;;;32.40;21.40;;;21.40;89.20;;;;;;5039369;28;20032;-78
2021/06/06 11:23:53;;;;;;;32.42;21.92;;;21.50;89.30;;;;;;5025718;28;20099;-78
2021/06/06 11:26:19;;;;;;;31.88;23.08;;;21.50;88.90;;;;;;5028672;28;20227;-79
2021/06/06 11:28:45;;;;;;;31.15;22.52;;;21.50;88.50;;;;;;5035221;28;20147;-80
2021/06/06 11:31:31;;;;;;;31.77;24.77;;;21.40;88.30;;;;;;5011058;28;20457;-79
2021/06/06 11:34:24;;;;;;;30.20;22.60;;;21.50;88.50;;;;;;5011621;28;20064;-79
2021/06/06 11:37:01;;;;;;;32.50;21.60;;;21.50;88.40;;;;;;5028036;28;20033;-79
2021/06/06 11:39:29;;;;;;;30.00;20.13;;;21.40;88.10;;;;;;4675726;28;9999728;-79
2021/06/06 11:41:55;;;;;;;28.83;21.23;;;21.40;88.40;;;;;;5033917;28;20049;-78
2021/06/06 11:44:54;;;;;;;22.98;17.83;;;21.50;88.40;;;;;;5018025;28;20041;-80
2021/06/06 11:47:24;;;;;;;23.58;16.92;;;21.50;88.00;;;;;;5023982;28;20037;-79
2021/06/06 11:49:51;;;;;;;22.60;17.95;;;21.50;88.30;;;;;;5017484;28;20082;-78
2021/06/06 11:52:20;;;;;;;26.55;18.80;;;21.60;87.90;;;;;;5016917;28;20029;-80
2021/06/06 11:54:53;;;;;;;22.83;16.08;;;21.70;88.10;;;;;;5047187;28;20044;-79
2021/06/06 11:57:29;;;;;;;24.42;18.52;;;21.70;87.70;;;;;;5002669;28;20238;-79
2021/06/06 12:00:18;;;;;;;23.77;19.13;;;21.70;88.30;;;;;;5018050;28;20126;-79
2021/06/06 12:02:43;;;;;;;21.95;16.33;;;21.60;87.60;;;;;;5033955;28;20040;-80
2021/06/06 12:05:22;;;;;;;22.83;17.67;;;21.60;87.20;;;;;;5007326;28;20478;-78
2021/06/06 12:07:49;;;;;;;26.77;17.92;;;21.60;87.20;;;;;;5024222;28;20037;-79
2021/06/06 12:10:26;;;;;;;25.58;19.75;;;21.60;87.00;;;;;;5006257;28;20029;-79
2021/06/06 12:12:56;;;;;;;25.23;19.13;;;21.60;87.10;;;;;;5005894;28;20426;-79
2021/06/06 12:15:25;;;;;;;19.30;15.57;;;21.50;86.90;;;;;;5019927;28;20277;-79
2021/06/06 12:18:17;;;;;;;31.52;24.77;;;21.50;86.60;;;;;;5022184;28;20040;-79
2021/06/06 12:21:03;;;;;;;32.63;24.15;;;21.50;87.10;;;;;;5003828;28;20022;-79
2021/06/06 12:23:34;;;;;;;26.27;19.80;;;21.60;87.20;;;;;;5035660;28;20422;-78
2021/06/06 12:26:10;;;;;;;26.85;21.25;;;21.70;87.40;;;;;;5033459;28;20030;-78
2021/06/06 12:28:41;;;;;;;30.10;22.10;;;21.80;87.40;;;;;;5025503;28;20524;-78
2021/06/06 12:31:08;;;;;;;24.08;17.20;;;22.00;86.80;;;;;;5024027;28;20037;-79
2021/06/06 12:33:38;;;;;;;36.30;29.77;;;22.00;85.70;;;;;;5015104;28;20042;-79
2021/06/06 12:36:07;;;;;;;33.35;25.40;;;22.10;85.50;;;;;;5037862;28;20025;-79
2021/06/06 12:38:33;;;;;;;36.55;26.73;;;22.20;86.40;;;;;;5022677;28;20033;-79
2021/06/06 12:41:00;;;;;;;28.83;23.35;;;22.40;87.00;;;;;;5025433;28;20526;-79
2021/06/06 12:43:27;;;;;;;30.10;22.52;;;22.50;86.50;;;;;;5043087;28;20030;-79